createdAt,value
2018-08-28T00:02:29.073Z,4.73
2018-08-28T00:04:57.921Z,4.90
2018-08-28T00:07:26.612Z,4.90
2018-08-28T00:09:55.348Z,4.73
2018-08-28T00:12:24.053Z,4.10
2018-08-28T00:14:52.755Z,4.10
2018-08-28T00:17:21.490Z,5.37
2018-08-28T00:19:50.216Z,4.30
2018-08-28T00:22:18.933Z,4.80
2018-08-28T00:24:47.669Z,4.63
2018-08-28T00:27:16.718Z,5.13
2018-08-28T00:29:45.422Z,5.50
2018-08-28T00:32:14.147Z,4.87
2018-08-28T00:34:42.839Z,6.50
2018-08-28T00:37:11.634Z,5.73
2018-08-28T00:39:40.418Z,5.10
2018-08-28T00:42:09.170Z,4.00
2018-08-28T00:44:37.888Z,4.57
2018-08-28T00:47:06.643Z,5.30
2018-08-28T00:49:35.402Z,5.20
2018-08-28T00:52:04.107Z,5.40
2018-08-28T00:54:33.211Z,5.20
2018-08-28T00:57:01.953Z,5.37
2018-08-28T00:59:30.634Z,5.20
2018-08-28T01:01:59.346Z,4.87
2018-08-28T01:04:28.001Z,5.77
2018-08-28T01:06:56.720Z,4.60
2018-08-28T01:09:25.360Z,4.37
2018-08-28T01:11:58.589Z,4.60
2018-08-28T01:14:31.558Z,5.40
2018-08-28T01:17:05.460Z,5.40
2018-08-28T01:19:39.404Z,5.67
2018-08-28T01:22:13.070Z,5.40
2018-08-28T01:24:46.499Z,5.93
2018-08-28T01:27:21.920Z,5.90
2018-08-28T01:29:56.838Z,7.30
2018-08-28T01:32:30.778Z,6.90
2018-08-28T01:35:04.583Z,7.40
2018-08-28T01:37:38.496Z,6.37
2018-08-28T01:40:12.323Z,6.57
2018-08-28T01:42:43.636Z,6.53
2018-08-28T01:45:16.152Z,6.47
2018-08-28T01:47:48.835Z,6.50
2018-08-28T01:50:21.539Z,6.97
2018-08-28T01:52:55.002Z,6.33
2018-08-28T01:55:27.930Z,8.13
2018-08-28T01:58:00.364Z,7.63
2018-08-28T02:00:34.247Z,7.47
2018-08-28T02:03:11.108Z,7.65
2018-08-28T02:05:45.063Z,7.43
2018-08-28T02:08:19.819Z,6.90
2018-08-28T02:10:55.869Z,5.72
2018-08-28T02:13:29.270Z,7.80
2018-08-28T02:16:11.153Z,7.40
2018-08-28T02:18:44.169Z,7.50
2018-08-28T02:21:17.481Z,7.72
2018-08-28T02:23:50.989Z,6.70
2018-08-28T02:26:24.722Z,6.50
2018-08-28T02:28:59.179Z,6.87
2018-08-28T02:31:34.285Z,7.53
2018-08-28T02:34:09.136Z,7.20
2018-08-28T02:36:43.116Z,6.67
2018-08-28T02:39:17.504Z,7.10
2018-08-28T02:41:49.698Z,7.30
2018-08-28T02:44:22.448Z,7.45
2018-08-28T02:46:52.992Z,6.63
2018-08-28T02:49:26.748Z,7.95
2018-08-28T02:51:59.333Z,6.20
2018-08-28T02:54:32.393Z,6.53
2018-08-28T02:57:05.241Z,6.50
2018-08-28T02:59:37.980Z,6.35
2018-08-28T03:02:11.495Z,5.62
2018-08-28T03:04:45.355Z,6.97
2018-08-28T03:07:19.842Z,5.70
2018-08-28T03:09:52.895Z,6.37
2018-08-28T03:12:26.768Z,6.93
2018-08-28T03:15:00.709Z,5.80
2018-08-28T03:17:33.225Z,7.30
2018-08-28T03:20:09.352Z,6.80
2018-08-28T03:22:43.137Z,6.35
2018-08-28T03:25:16.087Z,6.50
2018-08-28T03:27:49.690Z,7.30
2018-08-28T03:30:22.684Z,7.15
2018-08-28T03:32:55.633Z,6.75
2018-08-28T03:35:28.544Z,5.20
2018-08-28T03:38:01.310Z,5.85
2018-08-28T03:40:34.343Z,5.55
2018-08-28T03:43:07.015Z,5.90
2018-08-28T03:45:40.132Z,6.80
2018-08-28T03:48:12.361Z,5.67
2018-08-28T03:50:46.550Z,6.08
2018-08-28T03:53:19.214Z,6.17
2018-08-28T03:55:52.266Z,6.03
2018-08-28T03:58:25.655Z,5.67
2018-08-28T04:00:56.596Z,5.75
2018-08-28T04:03:29.249Z,5.60
2018-08-28T04:06:01.842Z,5.25
2018-08-28T04:08:34.487Z,5.22
2018-08-28T04:11:08.063Z,6.30
2018-08-28T04:13:40.823Z,6.03
2018-08-28T04:16:13.499Z,5.83
2018-08-28T04:18:46.104Z,5.75
2018-08-28T04:21:17.849Z,6.15
2018-08-28T04:23:51.992Z,6.20
2018-08-28T04:26:25.615Z,5.47
2018-08-28T04:28:57.967Z,5.97
2018-08-28T04:31:30.252Z,6.58
2018-08-28T04:34:03.329Z,6.12
2018-08-28T04:36:35.738Z,6.33
2018-08-28T04:39:08.716Z,6.08
2018-08-28T04:41:41.487Z,5.65
2018-08-28T04:44:11.249Z,6.33
2018-08-28T04:46:41.088Z,6.85
2018-08-28T04:49:11.117Z,6.78
2018-08-28T04:51:41.471Z,5.67
2018-08-28T04:54:14.615Z,7.08
2018-08-28T04:56:46.840Z,5.97
2018-08-28T04:59:15.545Z,5.90
2018-08-28T05:01:44.276Z,7.53
2018-08-28T05:04:12.971Z,6.05
2018-08-28T05:06:41.705Z,6.55
2018-08-28T05:09:10.381Z,6.17
2018-08-28T05:11:39.129Z,6.62
2018-08-28T05:14:07.881Z,6.90
2018-08-28T05:16:36.541Z,7.47
2018-08-28T05:19:05.409Z,6.65
2018-08-28T05:21:34.226Z,6.55
2018-08-28T05:24:02.993Z,7.50
2018-08-28T05:26:31.664Z,6.50
2018-08-28T05:29:00.433Z,6.75
2018-08-28T05:31:29.110Z,7.10
2018-08-28T05:33:57.858Z,6.35
2018-08-28T05:36:26.611Z,5.97
2018-08-28T05:38:55.418Z,6.50
2018-08-28T05:41:24.296Z,6.20
2018-08-28T05:43:53.029Z,6.80
2018-08-28T05:46:21.811Z,6.97
2018-08-28T05:48:50.633Z,7.15
2018-08-28T05:51:19.345Z,6.17
2018-08-28T05:53:48.037Z,6.53
2018-08-28T05:56:16.880Z,6.42
2018-08-28T05:58:45.486Z,7.78
2018-08-28T06:01:14.176Z,7.35
2018-08-28T06:03:42.952Z,8.00
2018-08-28T06:06:11.677Z,7.20
2018-08-28T06:08:40.464Z,6.78
2018-08-28T06:11:09.257Z,7.75
2018-08-28T06:13:38.164Z,8.10
2018-08-28T06:16:07.260Z,8.48
2018-08-28T06:18:36.004Z,9.03
2018-08-28T06:21:04.865Z,10.78
2018-08-28T06:23:33.566Z,8.55
2018-08-28T06:26:02.271Z,9.55
2018-08-28T06:28:30.984Z,8.77
2018-08-28T06:30:59.920Z,9.93
2018-08-28T06:33:28.634Z,8.58
2018-08-28T06:35:57.444Z,9.97
2018-08-28T06:38:26.292Z,10.63
2018-08-28T06:40:55.213Z,10.77
2018-08-28T06:43:24.036Z,11.27
2018-08-28T06:45:53.399Z,11.57
2018-08-28T06:48:22.181Z,12.17
2018-08-28T06:50:50.981Z,11.17
2018-08-28T06:53:19.795Z,11.00
2018-08-28T06:55:48.809Z,11.33
2018-08-28T06:58:17.668Z,10.90
2018-08-28T07:00:46.477Z,11.67
2018-08-28T07:03:15.171Z,11.70
2018-08-28T07:05:43.991Z,12.00
2018-08-28T07:08:12.819Z,11.07
2018-08-28T07:10:41.575Z,11.20
2018-08-28T07:13:10.286Z,11.30
2018-08-28T07:15:39.159Z,11.57
2018-08-28T07:18:07.965Z,10.70
2018-08-28T07:20:36.757Z,10.40
2018-08-28T07:23:05.761Z,11.40
2018-08-28T07:25:34.586Z,10.17
2018-08-28T07:28:03.563Z,9.70
2018-08-28T07:30:32.266Z,10.53
2018-08-28T07:33:01.066Z,9.80
2018-08-28T07:35:29.745Z,9.57
2018-08-28T07:37:58.511Z,11.20
2018-08-28T07:40:27.396Z,10.67
2018-08-28T07:42:56.304Z,10.20
2018-08-28T07:45:25.137Z,10.13
2018-08-28T07:47:53.929Z,9.00
2018-08-28T07:50:22.641Z,9.70
2018-08-28T07:52:54.572Z,8.70
2018-08-28T07:55:23.434Z,8.03
2018-08-28T07:57:52.122Z,8.57
2018-08-28T08:00:20.893Z,9.13
2018-08-28T08:02:49.636Z,8.10
2018-08-28T08:05:18.370Z,9.03
2018-08-28T08:07:47.130Z,8.00
2018-08-28T08:10:15.914Z,8.30
2018-08-28T08:12:44.817Z,7.43
2018-08-28T08:15:13.781Z,7.63
2018-08-28T08:17:42.640Z,8.40
2018-08-28T08:20:11.593Z,7.87
2018-08-28T08:22:40.368Z,8.13
2018-08-28T08:25:09.289Z,7.20
2018-08-28T08:27:38.038Z,7.70
2018-08-28T08:30:07.467Z,8.90
2018-08-28T08:32:36.128Z,7.20
2018-08-28T08:35:04.973Z,7.60
2018-08-28T08:37:33.811Z,7.77
2018-08-28T08:40:02.646Z,8.10
2018-08-28T08:42:31.448Z,7.63
2018-08-28T08:45:03.123Z,7.20
2018-08-28T08:47:31.849Z,5.63
2018-08-28T08:50:00.652Z,7.07
2018-08-28T08:52:36.722Z,6.10
2018-08-28T08:55:05.661Z,7.60
2018-08-28T08:57:34.449Z,7.00
2018-08-28T09:00:04.666Z,6.40
2018-08-28T09:02:40.085Z,5.77
2018-08-28T09:05:08.833Z,7.20
2018-08-28T09:07:37.584Z,8.10
2018-08-28T09:10:06.365Z,8.13
2018-08-28T09:12:35.302Z,6.80
2018-08-28T09:15:04.267Z,6.40
2018-08-28T09:17:33.628Z,6.37
2018-08-28T09:20:02.453Z,6.43
2018-08-28T09:22:31.927Z,6.73
2018-08-28T09:25:00.861Z,7.13
2018-08-28T09:27:29.740Z,7.40
2018-08-28T09:29:58.496Z,6.07
2018-08-28T09:32:27.499Z,6.77
2018-08-28T09:34:56.900Z,6.33
2018-08-28T09:37:27.047Z,8.23
2018-08-28T09:39:56.134Z,7.00
2018-08-28T09:42:25.049Z,6.30
2018-08-28T09:44:53.784Z,7.13
2018-08-28T09:47:22.508Z,7.10
2018-08-28T09:49:51.307Z,7.40
2018-08-28T09:52:20.341Z,6.57
2018-08-28T09:54:49.129Z,7.03
2018-08-28T09:57:17.912Z,7.00
2018-08-28T09:59:46.589Z,6.67
2018-08-28T10:02:17.185Z,6.80
2018-08-28T10:04:46.543Z,6.50
2018-08-28T10:07:16.230Z,6.27
2018-08-28T10:09:45.126Z,6.27
2018-08-28T10:12:13.947Z,6.53
2018-08-28T10:14:43.221Z,6.20
2018-08-28T10:17:12.002Z,6.20
2018-08-28T10:19:40.675Z,5.80
2018-08-28T10:22:09.481Z,7.40
2018-08-28T10:24:38.246Z,6.40
2018-08-28T10:27:07.286Z,6.53
2018-08-28T10:29:36.179Z,6.77
2018-08-28T10:32:05.015Z,6.70
2018-08-28T10:34:33.772Z,7.40
2018-08-28T10:37:02.726Z,7.07
2018-08-28T10:39:31.466Z,6.97
2018-08-28T10:42:00.185Z,7.27
2018-08-28T10:44:29.122Z,6.70
2018-08-28T10:46:57.904Z,8.10
2018-08-28T10:49:26.912Z,8.30
2018-08-28T10:51:55.786Z,7.60
2018-08-28T10:54:24.547Z,8.10
2018-08-28T10:56:53.312Z,7.20
2018-08-28T10:59:22.034Z,7.93
2018-08-28T11:01:50.991Z,7.93
2018-08-28T11:04:19.837Z,8.67
2018-08-28T11:06:48.522Z,8.40
2018-08-28T11:09:17.393Z,7.00
2018-08-28T11:11:46.147Z,7.00
2018-08-28T11:14:14.994Z,7.13
2018-08-28T11:16:43.756Z,7.33
2018-08-28T11:19:12.696Z,8.10
2018-08-28T11:21:41.454Z,8.53
2018-08-28T11:24:10.364Z,8.73
2018-08-28T11:26:39.264Z,8.57
2018-08-28T11:29:08.095Z,7.83
2018-08-28T11:31:36.821Z,8.70
2018-08-28T11:34:05.624Z,8.10
2018-08-28T11:36:34.449Z,8.10
2018-08-28T11:39:03.454Z,7.80
2018-08-28T11:41:32.345Z,8.17
2018-08-28T11:44:01.201Z,9.40
2018-08-28T11:46:30.232Z,8.10
2018-08-28T11:48:59.060Z,8.47
2018-08-28T11:51:27.768Z,8.63
2018-08-28T11:53:56.648Z,7.07
2018-08-28T11:56:25.495Z,8.50
2018-08-28T11:58:54.569Z,9.30
2018-08-28T12:01:23.435Z,8.70
2018-08-28T12:03:52.391Z,7.43
2018-08-28T12:06:21.320Z,7.93
2018-08-28T12:08:50.137Z,9.03
2018-08-28T12:11:18.867Z,8.30
2018-08-28T12:13:47.687Z,8.53
2018-08-28T12:16:16.516Z,7.77
2018-08-28T12:18:45.209Z,7.57
2018-08-28T12:21:14.026Z,8.53
2018-08-28T12:23:42.813Z,8.10
2018-08-28T12:26:11.540Z,8.60
2018-08-28T12:28:40.404Z,8.60
2018-08-28T12:31:09.118Z,8.83
2018-08-28T12:33:38.081Z,7.50
2018-08-28T12:36:06.916Z,8.67
2018-08-28T12:38:35.962Z,10.00
2018-08-28T12:41:04.873Z,8.30
2018-08-28T12:43:33.726Z,8.87
2018-08-28T12:46:02.695Z,8.47
2018-08-28T12:48:31.388Z,9.00
2018-08-28T12:51:00.313Z,8.50
2018-08-28T12:53:29.075Z,9.10
2018-08-28T12:56:01.650Z,8.37
2018-08-28T12:58:30.382Z,9.37
2018-08-28T13:00:59.149Z,9.43
2018-08-28T13:03:27.968Z,8.50
2018-08-28T13:05:56.813Z,8.20
2018-08-28T13:08:26.402Z,8.77
2018-08-28T13:10:55.273Z,9.50
2018-08-28T13:13:25.298Z,8.50
2018-08-28T13:15:54.007Z,8.60
2018-08-28T13:18:22.713Z,8.40
2018-08-28T13:20:51.473Z,16.87
2018-08-28T13:23:20.234Z,13.33
2018-08-28T13:25:49.003Z,9.13
2018-08-28T13:28:17.908Z,8.40
2018-08-28T13:30:46.615Z,8.13
2018-08-28T13:33:15.637Z,7.70
2018-08-28T13:35:44.445Z,7.97
2018-08-28T13:38:13.441Z,8.63
2018-08-28T13:40:42.468Z,8.50
2018-08-28T13:43:11.198Z,8.20
2018-08-28T13:45:39.957Z,8.10
2018-08-28T13:48:08.733Z,7.63
2018-08-28T13:50:37.541Z,9.30
2018-08-28T13:53:06.452Z,8.97
2018-08-28T13:55:35.175Z,9.07
2018-08-28T13:58:03.943Z,8.27
2018-08-28T14:00:33.075Z,8.20
2018-08-28T14:03:01.781Z,8.87
2018-08-28T14:05:30.482Z,8.60
2018-08-28T14:07:59.326Z,8.33
2018-08-28T14:10:28.057Z,8.87
2018-08-28T14:12:56.763Z,9.07
2018-08-28T14:15:25.516Z,8.00
2018-08-28T14:17:54.468Z,7.77
2018-08-28T14:20:23.210Z,9.37
2018-08-28T14:22:52.056Z,8.70
2018-08-28T14:25:20.852Z,8.23
2018-08-28T14:27:49.705Z,8.60
2018-08-28T14:30:18.408Z,7.67
2018-08-28T14:32:47.514Z,8.20
2018-08-28T14:35:16.287Z,9.20
2018-08-28T14:37:45.034Z,9.23
2018-08-28T14:40:13.952Z,7.60
2018-08-28T14:42:42.843Z,7.20
2018-08-28T14:45:11.715Z,7.33
2018-08-28T14:47:40.475Z,8.40
2018-08-28T14:50:09.766Z,7.33
2018-08-28T14:52:40.729Z,8.57
2018-08-28T14:55:09.789Z,7.57
2018-08-28T14:57:38.553Z,8.43
2018-08-28T15:00:07.629Z,7.37
2018-08-28T15:02:36.368Z,8.77
2018-08-28T15:05:05.284Z,7.37
2018-08-28T15:07:34.047Z,7.80
2018-08-28T15:10:02.901Z,7.97
2018-08-28T15:12:31.672Z,8.83
2018-08-28T15:15:00.456Z,7.40
2018-08-28T15:17:29.182Z,7.70
2018-08-28T15:19:57.991Z,9.13
2018-08-28T15:22:26.814Z,9.90
2018-08-28T15:24:55.686Z,7.87
2018-08-28T15:27:24.497Z,8.43
2018-08-28T15:29:54.415Z,8.83
2018-08-28T15:32:23.140Z,8.83
2018-08-28T15:34:51.897Z,10.03
2018-08-28T15:37:20.678Z,7.90
2018-08-28T15:39:49.386Z,8.43
2018-08-28T15:42:18.226Z,9.23
2018-08-28T15:44:47.102Z,8.87
2018-08-28T15:47:15.926Z,8.23
2018-08-28T15:49:46.890Z,8.97
2018-08-28T15:52:18.868Z,7.97
2018-08-28T15:54:47.623Z,8.83
2018-08-28T15:57:16.391Z,8.03
2018-08-28T15:59:45.108Z,8.40
2018-08-28T16:02:13.883Z,8.30
2018-08-28T16:04:44.987Z,8.50
2018-08-28T16:07:15.800Z,9.47
2018-08-28T16:09:44.561Z,7.83
2018-08-28T16:12:13.270Z,8.30
2018-08-28T16:14:41.980Z,8.40
2018-08-28T16:17:10.677Z,8.07
2018-08-28T16:19:39.394Z,7.17
2018-08-28T16:22:08.141Z,9.13
2018-08-28T16:24:36.873Z,9.20
2018-08-28T16:27:05.626Z,8.33
2018-08-28T16:29:34.329Z,8.87
2018-08-28T16:32:03.008Z,8.23
2018-08-28T16:34:31.714Z,7.70
2018-08-28T16:37:00.447Z,8.07
2018-08-28T16:39:29.262Z,8.13
2018-08-28T16:41:57.961Z,7.40
2018-08-28T16:44:26.647Z,7.70
2018-08-28T16:46:55.452Z,7.80
2018-08-28T16:49:24.093Z,7.80
2018-08-28T16:51:52.852Z,8.30
2018-08-28T16:54:21.605Z,7.20
2018-08-28T16:56:50.325Z,6.70
2018-08-28T16:59:19.709Z,7.47
2018-08-28T17:01:48.450Z,8.53
2018-08-28T17:04:17.202Z,7.40
2018-08-28T17:06:46.014Z,8.77
2018-08-28T17:09:14.797Z,7.60
2018-08-28T17:11:43.595Z,8.03
2018-08-28T17:14:12.417Z,7.50
2018-08-28T17:16:41.190Z,8.70
2018-08-28T17:19:09.964Z,6.90
2018-08-28T17:21:38.679Z,7.83
2018-08-28T17:24:07.385Z,7.97
2018-08-28T17:26:36.150Z,8.10
2018-08-28T17:29:05.021Z,7.07
2018-08-28T17:31:33.709Z,7.27
2018-08-28T17:34:02.574Z,8.90
2018-08-28T17:36:31.463Z,6.87
2018-08-28T17:39:00.174Z,7.50
2018-08-28T17:41:28.926Z,7.50
2018-08-28T17:43:57.658Z,8.23
2018-08-28T17:46:26.344Z,8.50
2018-08-28T17:48:55.147Z,8.73
2018-08-28T17:51:23.881Z,7.60
2018-08-28T17:53:52.683Z,9.30
2018-08-28T17:56:21.409Z,10.17
2018-08-28T17:58:50.105Z,8.77
2018-08-28T18:01:21.451Z,8.80
2018-08-28T18:03:50.255Z,8.73
2018-08-28T18:06:18.966Z,8.53
2018-08-28T18:08:47.705Z,9.20
2018-08-28T18:11:16.611Z,9.47
2018-08-28T18:13:45.321Z,8.33
2018-08-28T18:16:14.073Z,8.47
2018-08-28T18:18:42.928Z,7.47
2018-08-28T18:21:11.780Z,8.53
2018-08-28T18:23:40.644Z,9.43
2018-08-28T18:26:09.453Z,9.27
2018-08-28T18:28:38.233Z,9.93
2018-08-28T18:31:07.114Z,9.20
2018-08-28T18:33:35.883Z,8.83
2018-08-28T18:36:04.770Z,8.23
2018-08-28T18:38:33.456Z,8.43
2018-08-28T18:41:02.382Z,7.67
2018-08-28T18:43:31.162Z,9.37
2018-08-28T18:45:59.846Z,8.40
2018-08-28T18:48:28.616Z,9.10
2018-08-28T18:50:57.448Z,8.63
2018-08-28T18:53:26.259Z,7.70
2018-08-28T18:55:55.038Z,9.60
2018-08-28T18:58:23.968Z,9.33
2018-08-28T19:00:52.750Z,9.50
2018-08-28T19:03:21.706Z,10.17
2018-08-28T19:05:50.534Z,9.27
2018-08-28T19:08:19.289Z,8.30
2018-08-28T19:10:48.031Z,8.40
2018-08-28T19:13:16.837Z,8.83
2018-08-28T19:15:45.688Z,9.80
2018-08-28T19:18:14.517Z,9.60
2018-08-28T19:20:43.243Z,9.17
2018-08-28T19:23:12.024Z,9.43
2018-08-28T19:25:40.761Z,9.70
2018-08-28T19:28:09.582Z,8.77
2018-08-28T19:30:38.337Z,9.07
2018-08-28T19:33:07.076Z,9.90
2018-08-28T19:35:35.938Z,8.33
2018-08-28T19:38:05.012Z,8.57
2018-08-28T19:40:33.723Z,9.20
2018-08-28T19:43:02.613Z,8.73
2018-08-28T19:45:31.370Z,9.13
2018-08-28T19:48:00.188Z,9.03
2018-08-28T19:50:28.894Z,8.70
2018-08-28T19:52:57.760Z,9.07
2018-08-28T19:55:26.468Z,9.50
2018-08-28T19:57:55.209Z,9.47
2018-08-28T20:00:24.000Z,8.50
2018-08-28T20:02:56.506Z,8.33
2018-08-28T20:05:29.312Z,8.67
2018-08-28T20:07:58.109Z,8.30
2018-08-28T20:10:26.826Z,8.73
2018-08-28T20:12:55.566Z,8.57
2018-08-28T20:15:24.293Z,8.17
2018-08-28T20:17:53.014Z,8.60
2018-08-28T20:20:21.755Z,8.60
2018-08-28T20:22:50.537Z,9.00
2018-08-28T20:25:19.411Z,9.40
2018-08-28T20:27:48.215Z,9.50
2018-08-28T20:30:17.005Z,9.97
2018-08-28T20:32:45.767Z,8.27
2018-08-28T20:35:14.446Z,9.60
2018-08-28T20:37:43.250Z,8.67
2018-08-28T20:40:11.996Z,9.60
2018-08-28T20:42:40.753Z,9.20
2018-08-28T20:45:09.867Z,9.53
2018-08-28T20:47:38.595Z,9.23
2018-08-28T20:50:07.340Z,8.00
2018-08-28T20:52:36.101Z,9.30
2018-08-28T20:55:05.031Z,9.73
2018-08-28T20:57:33.788Z,9.80
2018-08-28T21:00:02.637Z,10.53
2018-08-28T21:02:31.451Z,10.13
2018-08-28T21:05:00.154Z,10.40
2018-08-28T21:07:28.929Z,10.03
2018-08-28T21:09:57.690Z,9.80
2018-08-28T21:12:27.428Z,8.37
2018-08-28T21:14:56.115Z,8.83
2018-08-28T21:17:24.812Z,8.13
2018-08-28T21:19:53.769Z,9.10
2018-08-28T21:22:22.484Z,8.40
2018-08-28T21:24:51.261Z,9.03
2018-08-28T21:27:20.030Z,8.37
2018-08-28T21:29:48.819Z,8.23
2018-08-28T21:32:17.564Z,8.43
2018-08-28T21:34:46.320Z,9.77
2018-08-28T21:37:15.116Z,8.40
2018-08-28T21:39:43.795Z,8.97
2018-08-28T21:42:12.634Z,8.77
2018-08-28T21:44:41.390Z,9.43
2018-08-28T21:47:10.102Z,7.60
2018-08-28T21:49:38.836Z,8.40
2018-08-28T21:52:07.621Z,8.93
2018-08-28T21:54:36.357Z,9.07
2018-08-28T21:57:05.109Z,8.00
2018-08-28T21:59:33.867Z,8.00
2018-08-28T22:02:02.578Z,7.70
2018-08-28T22:04:31.315Z,7.70
2018-08-28T22:07:05.200Z,7.80
2018-08-28T22:09:34.058Z,7.80
2018-08-28T22:12:02.994Z,7.60
2018-08-28T22:14:31.704Z,9.53
2018-08-28T22:17:00.785Z,9.80
2018-08-28T22:19:29.619Z,8.87
2018-08-28T22:21:58.407Z,8.90
2018-08-28T22:24:27.093Z,9.13
2018-08-28T22:26:55.752Z,9.77
2018-08-28T22:29:24.478Z,10.30
2018-08-28T22:31:53.193Z,9.90
2018-08-28T22:34:21.826Z,9.80
2018-08-28T22:36:50.572Z,9.67
2018-08-28T22:39:19.292Z,9.47
2018-08-28T22:41:48.038Z,9.90
2018-08-28T22:44:16.696Z,8.50
2018-08-28T22:46:45.354Z,9.73
2018-08-28T22:49:14.036Z,8.20
2018-08-28T22:51:42.671Z,10.03
2018-08-28T22:54:11.396Z,10.60
2018-08-28T22:56:40.102Z,10.20
2018-08-28T22:59:08.817Z,8.80
2018-08-28T23:01:37.502Z,10.00
2018-08-28T23:04:06.200Z,8.50
2018-08-28T23:06:34.934Z,9.00
2018-08-28T23:09:03.729Z,9.70
2018-08-28T23:11:32.685Z,10.90
2018-08-28T23:14:01.387Z,9.60
2018-08-28T23:16:30.120Z,10.07
2018-08-28T23:18:58.827Z,8.93
2018-08-28T23:21:29.116Z,9.67
2018-08-28T23:23:57.771Z,9.63
2018-08-28T23:26:26.495Z,8.07
2018-08-28T23:28:55.153Z,8.20
2018-08-28T23:31:23.866Z,8.40
2018-08-28T23:33:52.596Z,8.70
2018-08-28T23:36:21.320Z,9.30
2018-08-28T23:38:49.995Z,9.43
2018-08-28T23:41:18.603Z,9.28
2018-08-28T23:43:47.369Z,9.17
2018-08-28T23:46:16.098Z,9.00
2018-08-28T23:48:44.825Z,9.80
2018-08-28T23:51:13.529Z,10.10
2018-08-28T23:53:42.318Z,10.38
2018-08-28T23:56:11.042Z,10.43
2018-08-28T23:58:39.781Z,9.80
